createdAt,value
2022-09-11T00:00:53.412Z,31.16
2022-09-11T00:01:53.473Z,31.07
2022-09-11T00:02:53.504Z,31.16
2022-09-11T00:03:53.412Z,31.16
2022-09-11T00:04:53.412Z,31.07
2022-09-11T00:05:53.438Z,31.16
2022-09-11T00:06:53.412Z,31.07
2022-09-11T00:07:53.416Z,31.26
2022-09-11T00:08:53.413Z,31.07
2022-09-11T00:09:53.413Z,31.07
2022-09-11T00:10:53.412Z,31.07
2022-09-11T00:11:53.427Z,31.26
2022-09-11T00:12:53.414Z,31.16
2022-09-11T00:13:53.414Z,31.07
2022-09-11T00:14:53.414Z,31.07
2022-09-11T00:15:53.438Z,31.26
2022-09-11T00:16:53.414Z,31.16
2022-09-11T00:17:53.416Z,31.26
2022-09-11T00:18:53.414Z,31.07
2022-09-11T00:19:53.417Z,31.26
2022-09-11T00:20:53.415Z,31.07
2022-09-11T00:21:53.436Z,31.07
2022-09-11T00:22:53.418Z,31.26
2022-09-11T00:23:53.416Z,31.16
2022-09-11T00:24:53.417Z,31.07
2022-09-11T00:25:53.416Z,31.07
2022-09-11T00:26:53.417Z,31.07
2022-09-11T00:27:53.418Z,31.16
2022-09-11T00:28:53.418Z,31.07
2022-09-11T00:29:53.419Z,31.07
2022-09-11T00:30:53.422Z,31.16
2022-09-11T00:31:53.418Z,31.07
2022-09-11T00:32:53.417Z,31.16
2022-09-11T00:33:53.420Z,31.16
2022-09-11T00:34:53.418Z,31.16
2022-09-11T00:35:53.422Z,31.16
2022-09-11T00:36:53.419Z,31.07
2022-09-11T00:37:53.445Z,31.35
2022-09-11T00:38:53.420Z,31.16
2022-09-11T00:39:53.461Z,31.07
2022-09-11T00:40:53.419Z,31.16
2022-09-11T00:41:53.420Z,31.07
2022-09-11T00:42:53.430Z,31.16
2022-09-11T00:43:53.421Z,31.26
2022-09-11T00:44:53.420Z,31.07
2022-09-11T00:45:53.492Z,31.26
2022-09-11T00:46:53.424Z,31.16
2022-09-11T00:47:53.422Z,31.07
2022-09-11T00:48:53.422Z,31.26
2022-09-11T00:49:53.421Z,31.35
2022-09-11T00:50:53.421Z,31.07
2022-09-11T00:51:53.422Z,31.26
2022-09-11T00:52:53.423Z,31.07
2022-09-11T00:53:53.446Z,31.07
2022-09-11T00:54:53.421Z,31.16
2022-09-11T00:55:53.423Z,31.16
2022-09-11T00:56:53.423Z,31.26
2022-09-11T00:57:53.423Z,31.16
2022-09-11T00:58:53.428Z,31.16
2022-09-11T00:59:53.424Z,31.07
2022-09-11T01:00:53.470Z,31.07
2022-09-11T01:01:53.457Z,31.26
2022-09-11T01:02:53.424Z,31.26
2022-09-11T01:03:53.425Z,31.26
2022-09-11T01:04:53.426Z,31.35
2022-09-11T01:05:53.425Z,31.26
2022-09-11T01:06:53.426Z,31.26
2022-09-11T01:07:53.426Z,31.26
2022-09-11T01:08:53.424Z,31.26
2022-09-11T01:09:53.447Z,31.26
2022-09-11T01:10:53.425Z,31.07
2022-09-11T01:11:53.427Z,31.26
2022-09-11T01:12:53.428Z,31.16
2022-09-11T01:13:53.426Z,31.35
2022-09-11T01:14:53.426Z,31.07
2022-09-11T01:15:53.462Z,31.16
2022-09-11T01:16:53.426Z,31.26
2022-09-11T01:17:53.428Z,31.07
2022-09-11T01:18:53.427Z,31.26
2022-09-11T01:19:53.680Z,31.07
2022-09-11T01:20:53.430Z,31.16
2022-09-11T01:21:53.428Z,31.07
2022-09-11T01:22:53.428Z,31.16
2022-09-11T01:23:53.429Z,31.26
2022-09-11T01:24:53.428Z,31.16
2022-09-11T01:25:53.453Z,31.16
2022-09-11T01:26:53.430Z,31.26
2022-09-11T01:27:53.430Z,31.26
2022-09-11T01:28:53.430Z,31.07
2022-09-11T01:29:53.430Z,31.26
2022-09-11T01:30:53.429Z,31.26
2022-09-11T01:31:53.431Z,31.07
2022-09-11T01:32:53.430Z,31.26
2022-09-11T01:33:53.432Z,31.16
2022-09-11T01:34:53.430Z,31.26
2022-09-11T01:35:53.447Z,31.26
2022-09-11T01:36:53.432Z,31.35
2022-09-11T01:37:53.432Z,31.16
2022-09-11T01:38:53.436Z,31.26
2022-09-11T01:39:53.460Z,31.35
2022-09-11T01:40:53.434Z,31.16
2022-09-11T01:41:53.456Z,31.07
2022-09-11T01:42:53.433Z,31.16
2022-09-11T01:43:53.433Z,31.35
2022-09-11T01:44:53.434Z,31.35
2022-09-11T01:45:53.454Z,31.26
2022-09-11T01:46:53.434Z,31.26
2022-09-11T01:47:53.435Z,31.16
2022-09-11T01:48:53.434Z,31.26
2022-09-11T01:49:53.434Z,31.26
2022-09-11T01:50:53.434Z,31.26
2022-09-11T01:51:53.436Z,31.26
2022-09-11T01:52:53.439Z,31.26
2022-09-11T01:53:53.434Z,31.26
2022-09-11T01:54:53.434Z,31.35
2022-09-11T01:55:53.435Z,31.35
2022-09-11T01:56:53.435Z,31.26
2022-09-11T01:57:53.457Z,31.26
2022-09-11T01:58:53.437Z,31.26
2022-09-11T01:59:53.436Z,31.26
2022-09-11T02:00:53.563Z,31.26
2022-09-11T02:01:53.465Z,31.26
2022-09-11T02:02:53.438Z,31.35
2022-09-11T02:03:53.438Z,31.26
2022-09-11T02:04:53.438Z,31.16
2022-09-11T02:05:53.436Z,31.16
2022-09-11T02:06:53.445Z,31.35
2022-09-11T02:07:53.438Z,31.35
2022-09-11T02:08:53.441Z,31.26
2022-09-11T02:09:53.437Z,31.26
2022-09-11T02:10:53.438Z,31.16
2022-09-11T02:11:53.443Z,31.35
2022-09-11T02:12:53.439Z,31.35
2022-09-11T02:13:53.461Z,31.26
2022-09-11T02:14:53.440Z,31.26
2022-09-11T02:15:53.610Z,31.26
2022-09-11T02:16:53.440Z,31.26
2022-09-11T02:17:53.441Z,31.26
2022-09-11T02:18:53.441Z,31.26
2022-09-11T02:19:53.440Z,31.26
2022-09-11T02:20:53.441Z,31.07
2022-09-11T02:21:53.440Z,31.16
2022-09-11T02:22:53.442Z,31.07
2022-09-11T02:23:53.440Z,31.26
2022-09-11T02:24:53.443Z,31.07
2022-09-11T02:25:53.440Z,31.07
2022-09-11T02:26:53.441Z,31.26
2022-09-11T02:27:53.441Z,31.07
2022-09-11T02:28:53.442Z,31.16
2022-09-11T02:29:53.463Z,31.26
2022-09-11T02:30:53.443Z,31.26
2022-09-11T02:31:53.442Z,31.26
2022-09-11T02:32:53.443Z,31.26
2022-09-11T02:33:53.442Z,31.16
2022-09-11T02:34:53.446Z,31.26
2022-09-11T02:35:53.444Z,31.26
2022-09-11T02:36:53.445Z,31.26
2022-09-11T02:37:53.443Z,31.16
2022-09-11T02:38:53.445Z,31.16
2022-09-11T02:39:53.570Z,31.16
2022-09-11T02:40:53.448Z,31.16
2022-09-11T02:41:53.449Z,31.16
2022-09-11T02:42:53.445Z,31.07
2022-09-11T02:43:53.445Z,31.07
2022-09-11T02:44:53.448Z,31.26
2022-09-11T02:45:53.514Z,31.26
2022-09-11T02:46:53.445Z,31.07
2022-09-11T02:47:53.445Z,31.16
2022-09-11T02:48:53.447Z,31.16
2022-09-11T02:49:53.447Z,31.16
2022-09-11T02:50:53.447Z,31.07
2022-09-11T02:51:53.445Z,30.97
2022-09-11T02:52:53.447Z,31.26
2022-09-11T02:53:53.446Z,31.16
2022-09-11T02:54:53.448Z,31.26
2022-09-11T02:55:53.448Z,31.07
2022-09-11T02:56:53.450Z,31.07
2022-09-11T02:57:53.447Z,31.07
2022-09-11T02:58:53.450Z,31.16
2022-09-11T02:59:53.448Z,31.16
2022-09-11T03:00:53.477Z,31.26
2022-09-11T03:01:53.593Z,31.16
2022-09-11T03:02:53.449Z,31.26
2022-09-11T03:03:53.448Z,31.16
2022-09-11T03:04:53.450Z,31.16
2022-09-11T03:05:53.450Z,31.07
2022-09-11T03:06:53.450Z,31.16
2022-09-11T03:07:53.449Z,31.26
2022-09-11T03:08:53.452Z,31.26
2022-09-11T03:09:53.450Z,31.07
2022-09-11T03:10:53.451Z,31.16
2022-09-11T03:11:53.453Z,31.16
2022-09-11T03:12:53.452Z,31.16
2022-09-11T03:13:53.451Z,31.16
2022-09-11T03:14:53.454Z,31.07
2022-09-11T03:15:53.452Z,31.16
2022-09-11T03:16:53.453Z,31.26
2022-09-11T03:17:53.475Z,31.26
2022-09-11T03:18:53.454Z,31.16
2022-09-11T03:19:53.454Z,31.16
2022-09-11T03:20:53.453Z,31.16
2022-09-11T03:21:53.453Z,31.07
2022-09-11T03:22:53.454Z,31.07
2022-09-11T03:23:53.454Z,31.07
2022-09-11T03:24:53.454Z,31.16
2022-09-11T03:25:53.454Z,31.26
2022-09-11T03:26:53.454Z,31.07
2022-09-11T03:27:53.454Z,31.16
2022-09-11T03:28:53.456Z,31.16
2022-09-11T03:29:53.455Z,31.07
2022-09-11T03:30:53.454Z,31.16
2022-09-11T03:31:53.533Z,31.16
2022-09-11T03:32:53.456Z,31.16
2022-09-11T03:33:53.475Z,31.07
2022-09-11T03:34:53.457Z,31.07
2022-09-11T03:35:53.455Z,31.26
2022-09-11T03:36:53.459Z,31.07
2022-09-11T03:37:53.455Z,31.07
2022-09-11T03:38:53.457Z,31.07
2022-09-11T03:39:53.517Z,31.07
2022-09-11T03:40:53.458Z,31.07
2022-09-11T03:41:53.456Z,31.07
2022-09-11T03:42:53.459Z,31.07
2022-09-11T03:43:53.461Z,31.07
2022-09-11T03:44:53.460Z,31.16
2022-09-11T03:45:53.503Z,31.16
2022-09-11T03:46:53.458Z,31.16
2022-09-11T03:47:53.457Z,31.16
2022-09-11T03:48:53.460Z,31.16
2022-09-11T03:49:53.480Z,31.07
2022-09-11T03:50:53.463Z,31.07
2022-09-11T03:51:53.458Z,31.26
2022-09-11T03:52:53.460Z,31.07
2022-09-11T03:53:53.458Z,31.07
2022-09-11T03:54:53.461Z,31.07
2022-09-11T03:55:53.460Z,31.26
2022-09-11T03:56:53.461Z,31.07
2022-09-11T03:57:53.458Z,31.07
2022-09-11T03:58:53.462Z,31.07
2022-09-11T03:59:53.461Z,31.16
2022-09-11T04:00:53.539Z,31.26
2022-09-11T04:01:53.486Z,31.26
2022-09-11T04:02:53.461Z,31.16
2022-09-11T04:03:53.464Z,31.16
2022-09-11T04:04:53.462Z,31.16
2022-09-11T04:05:53.482Z,31.16
2022-09-11T04:06:53.462Z,31.16
2022-09-11T04:07:53.461Z,31.16
2022-09-11T04:08:53.464Z,31.26
2022-09-11T04:09:53.462Z,31.16
2022-09-11T04:10:53.464Z,31.07
2022-09-11T04:11:53.463Z,31.07
2022-09-11T04:12:53.463Z,31.35
2022-09-11T04:13:53.461Z,31.35
2022-09-11T04:14:53.465Z,31.26
2022-09-11T04:15:53.463Z,31.07
2022-09-11T04:16:53.465Z,31.16
2022-09-11T04:17:53.464Z,31.26
2022-09-11T04:18:53.464Z,31.35
2022-09-11T04:19:53.463Z,31.26
2022-09-11T04:20:53.465Z,31.26
2022-09-11T04:21:53.487Z,31.26
2022-09-11T04:22:53.467Z,31.26
2022-09-11T04:23:53.466Z,31.26
2022-09-11T04:24:53.468Z,31.26
2022-09-11T04:25:53.465Z,31.26
2022-09-11T04:26:57.360Z,31.26
2022-09-11T04:27:53.465Z,31.26
2022-09-11T04:28:53.467Z,31.26
2022-09-11T04:29:53.465Z,31.26
2022-09-11T04:30:53.467Z,31.26
2022-09-11T04:31:53.492Z,31.26
2022-09-11T04:32:53.469Z,31.16
2022-09-11T04:33:57.056Z,31.45
2022-09-11T04:34:53.467Z,31.35
2022-09-11T04:35:53.468Z,30.87
2022-09-11T04:36:53.468Z,31.35
2022-09-11T04:37:53.489Z,31.35
2022-09-11T04:38:53.469Z,31.35
2022-09-11T04:39:53.489Z,31.45
2022-09-11T04:40:53.469Z,31.45
2022-09-11T04:41:53.467Z,31.26
2022-09-11T04:42:53.469Z,31.26
2022-09-11T04:43:53.471Z,31.45
2022-09-11T04:44:53.470Z,31.35
2022-09-11T04:45:53.528Z,31.35
2022-09-11T04:46:53.470Z,31.35
2022-09-11T04:47:53.471Z,31.45
2022-09-11T04:48:53.471Z,31.45
2022-09-11T04:49:53.470Z,31.35
2022-09-11T04:50:53.470Z,31.35
2022-09-11T04:51:53.470Z,31.26
2022-09-11T04:52:53.472Z,31.26
2022-09-11T04:53:53.491Z,31.16
2022-09-11T04:54:53.479Z,31.26
2022-09-11T04:55:53.471Z,31.26
2022-09-11T04:56:53.473Z,31.16
2022-09-11T04:57:53.471Z,31.26
2022-09-11T04:58:53.472Z,31.35
2022-09-11T04:59:53.472Z,31.07
2022-09-11T05:00:53.500Z,31.45
2022-09-11T05:01:53.526Z,31.16
2022-09-11T05:02:53.473Z,31.55
2022-09-11T05:03:53.473Z,31.26
2022-09-11T05:04:53.474Z,31.55
2022-09-11T05:05:53.476Z,31.35
2022-09-11T05:06:53.473Z,31.45
2022-09-11T05:07:53.473Z,31.35
2022-09-11T05:08:53.475Z,31.45
2022-09-11T05:09:53.495Z,31.35
2022-09-11T05:10:53.474Z,31.35
2022-09-11T05:11:53.475Z,31.16
2022-09-11T05:12:53.476Z,31.45
2022-09-11T05:13:53.474Z,31.45
2022-09-11T05:14:53.476Z,31.45
2022-09-11T05:15:53.475Z,31.35
2022-09-11T05:16:53.476Z,31.45
2022-09-11T05:17:53.475Z,31.55
2022-09-11T05:18:53.476Z,31.26
2022-09-11T05:19:53.725Z,31.35
2022-09-11T05:20:53.477Z,31.35
2022-09-11T05:21:53.477Z,31.26
2022-09-11T05:22:53.479Z,31.35
2022-09-11T05:23:53.477Z,31.35
2022-09-11T05:24:53.481Z,31.55
2022-09-11T05:25:53.498Z,31.35
2022-09-11T05:26:53.479Z,31.35
2022-09-11T05:27:53.480Z,31.26
2022-09-11T05:28:53.480Z,31.26
2022-09-11T05:29:53.477Z,31.35
2022-09-11T05:30:53.478Z,31.35
2022-09-11T05:31:53.589Z,31.26
2022-09-11T05:32:53.481Z,31.35
2022-09-11T05:33:53.481Z,31.45
2022-09-11T05:34:53.479Z,31.26
2022-09-11T05:35:53.479Z,31.35
2022-09-11T05:36:53.481Z,31.55
2022-09-11T05:37:53.480Z,31.45
2022-09-11T05:38:53.480Z,31.35
2022-09-11T05:39:53.566Z,31.35
2022-09-11T05:40:53.482Z,31.35
2022-09-11T05:41:53.500Z,31.55
2022-09-11T05:42:53.482Z,31.45
2022-09-11T05:43:53.480Z,31.45
2022-09-11T05:44:53.482Z,31.26
2022-09-11T05:45:53.521Z,31.55
2022-09-11T05:46:53.484Z,31.55
2022-09-11T05:47:55.921Z,31.45
2022-09-11T05:48:53.487Z,31.45
2022-09-11T05:49:53.482Z,31.55
2022-09-11T05:50:53.483Z,31.35
2022-09-11T05:51:53.484Z,31.45
2022-09-11T05:52:53.484Z,31.35
2022-09-11T05:53:53.484Z,31.35
2022-09-11T05:54:53.553Z,31.55
2022-09-11T05:55:53.484Z,31.26
2022-09-11T05:56:53.484Z,31.55
2022-09-11T05:57:53.504Z,31.35
2022-09-11T05:58:53.485Z,31.45
2022-09-11T05:59:53.534Z,31.45
2022-09-11T06:00:53.554Z,31.35
2022-09-11T06:01:53.540Z,31.55
2022-09-11T06:02:53.485Z,31.45
2022-09-11T06:03:53.486Z,31.55
2022-09-11T06:04:53.486Z,31.35
2022-09-11T06:05:53.484Z,31.45
2022-09-11T06:06:53.487Z,31.45
2022-09-11T06:07:53.485Z,31.45
2022-09-11T06:08:53.488Z,31.45
2022-09-11T06:09:53.486Z,31.45
2022-09-11T06:10:53.487Z,31.45
2022-09-11T06:11:53.486Z,31.45
2022-09-11T06:12:53.488Z,31.55
2022-09-11T06:13:53.510Z,31.55
2022-09-11T06:14:53.488Z,31.45
2022-09-11T06:15:53.488Z,31.45
2022-09-11T06:16:53.564Z,31.45
2022-09-11T06:17:53.488Z,31.55
2022-09-11T06:18:53.487Z,31.45
2022-09-11T06:19:53.640Z,31.45
2022-09-11T06:20:53.488Z,31.35
2022-09-11T06:21:53.489Z,31.65
2022-09-11T06:22:53.489Z,31.45
2022-09-11T06:23:53.489Z,31.45
2022-09-11T06:24:53.491Z,31.45
2022-09-11T06:25:53.489Z,31.45
2022-09-11T06:26:53.490Z,31.35
2022-09-11T06:27:53.493Z,31.65
2022-09-11T06:28:53.490Z,31.45
2022-09-11T06:29:53.513Z,31.45
2022-09-11T06:30:53.570Z,31.45
2022-09-11T06:31:53.491Z,31.45
2022-09-11T06:32:53.491Z,31.45
2022-09-11T06:33:53.496Z,31.65
2022-09-11T06:34:53.491Z,31.55
2022-09-11T06:35:53.493Z,31.55
2022-09-11T06:36:53.493Z,31.45
2022-09-11T06:37:53.492Z,31.35
2022-09-11T06:38:53.491Z,31.35
2022-09-11T06:39:53.535Z,31.45
2022-09-11T06:40:53.492Z,31.45
2022-09-11T06:41:53.493Z,31.45
2022-09-11T06:42:53.492Z,31.65
2022-09-11T06:43:53.499Z,31.74
2022-09-11T06:44:53.493Z,31.65
2022-09-11T06:45:53.574Z,31.65
2022-09-11T06:46:53.493Z,31.45
2022-09-11T06:47:53.496Z,31.74
2022-09-11T06:48:53.495Z,31.74
2022-09-11T06:49:53.497Z,31.65
2022-09-11T06:50:53.495Z,31.65
2022-09-11T06:51:53.495Z,31.74
2022-09-11T06:52:53.495Z,31.45
2022-09-11T06:53:53.495Z,31.45
2022-09-11T06:54:53.495Z,31.35
2022-09-11T06:55:53.497Z,31.55
2022-09-11T06:56:53.496Z,31.74
2022-09-11T06:57:53.496Z,31.65
2022-09-11T06:58:53.497Z,31.45
2022-09-11T06:59:53.498Z,31.65
2022-09-11T07:00:53.509Z,31.65
2022-09-11T07:01:53.641Z,31.35
2022-09-11T07:02:53.497Z,31.65
2022-09-11T07:03:53.500Z,31.65
2022-09-11T07:04:53.498Z,31.35
2022-09-11T07:05:53.498Z,31.35
2022-09-11T07:06:53.498Z,31.55
2022-09-11T07:07:53.506Z,31.55
2022-09-11T07:08:53.502Z,31.55
2022-09-11T07:09:53.500Z,31.55
2022-09-11T07:10:53.503Z,31.74
2022-09-11T07:11:53.500Z,31.45
2022-09-11T07:12:53.499Z,31.65
2022-09-11T07:13:53.499Z,31.74
2022-09-11T07:14:53.500Z,31.65
2022-09-11T07:15:53.503Z,31.55
2022-09-11T07:16:53.527Z,31.74
2022-09-11T07:17:53.526Z,31.74
2022-09-11T07:18:53.500Z,31.65
2022-09-11T07:19:53.502Z,31.45
2022-09-11T07:20:53.502Z,31.74
2022-09-11T07:21:53.503Z,31.65
2022-09-11T07:22:53.502Z,31.55
2022-09-11T07:23:53.502Z,31.45
2022-09-11T07:24:53.502Z,31.45
2022-09-11T07:25:53.532Z,31.74
2022-09-11T07:26:53.502Z,31.74
2022-09-11T07:27:53.505Z,31.65
2022-09-11T07:28:53.502Z,31.74
2022-09-11T07:29:53.504Z,31.74
2022-09-11T07:30:53.523Z,31.55
2022-09-11T07:31:53.505Z,31.65
2022-09-11T07:32:53.505Z,31.65
2022-09-11T07:33:53.528Z,31.84
2022-09-11T07:34:53.503Z,31.65
2022-09-11T07:35:53.506Z,31.74
2022-09-11T07:36:53.505Z,31.74
2022-09-11T07:37:53.504Z,31.74
2022-09-11T07:38:53.504Z,31.74
2022-09-11T07:39:53.544Z,31.74
2022-09-11T07:40:53.505Z,31.74
2022-09-11T07:41:53.509Z,31.74
2022-09-11T07:42:53.510Z,31.55
2022-09-11T07:43:53.506Z,31.74
2022-09-11T07:44:53.506Z,31.74
2022-09-11T07:45:53.602Z,31.74
2022-09-11T07:46:53.505Z,31.55
2022-09-11T07:47:53.509Z,31.74
2022-09-11T07:48:53.506Z,31.45
2022-09-11T07:49:53.528Z,31.84
2022-09-11T07:50:53.506Z,31.55
2022-09-11T07:51:53.508Z,31.55
2022-09-11T07:52:53.507Z,31.55
2022-09-11T07:53:53.507Z,31.45
2022-09-11T07:54:53.509Z,31.65
2022-09-11T07:55:53.509Z,31.84
2022-09-11T07:56:53.508Z,31.84
2022-09-11T07:57:53.509Z,31.84
2022-09-11T07:58:53.509Z,31.74
2022-09-11T07:59:53.509Z,31.84
2022-09-11T08:00:53.543Z,31.84
2022-09-11T08:01:53.509Z,31.84
2022-09-11T08:02:53.512Z,31.74
2022-09-11T08:03:53.510Z,31.65
2022-09-11T08:04:53.510Z,31.74
2022-09-11T08:05:53.531Z,31.65
2022-09-11T08:06:53.510Z,31.65
2022-09-11T08:07:53.513Z,31.74
2022-09-11T08:08:53.512Z,31.74
2022-09-11T08:10:16.425Z,31.65
2022-09-11T08:10:53.511Z,31.94
2022-09-11T08:11:53.525Z,31.74
2022-09-11T08:12:58.054Z,31.94
2022-09-11T08:13:53.511Z,31.74
2022-09-11T08:14:53.512Z,31.94
2022-09-11T08:15:53.513Z,32.04
2022-09-11T08:16:53.513Z,32.04
2022-09-11T08:17:53.513Z,32.04
2022-09-11T08:18:53.513Z,32.04
2022-09-11T08:19:53.664Z,32.04
2022-09-11T08:20:53.513Z,32.13
2022-09-11T08:21:53.536Z,31.74
2022-09-11T08:22:53.513Z,32.13
2022-09-11T08:23:53.516Z,32.04
2022-09-11T08:24:53.514Z,32.13
2022-09-11T08:25:53.515Z,32.23
2022-09-11T08:26:53.515Z,32.32
2022-09-11T08:27:53.515Z,32.23
2022-09-11T08:28:53.515Z,31.94
2022-09-11T08:29:53.516Z,32.13
2022-09-11T08:30:53.556Z,31.84
2022-09-11T08:31:53.516Z,32.23
2022-09-11T08:32:53.515Z,32.23
2022-09-11T08:33:53.516Z,32.32
2022-09-11T08:34:53.516Z,32.23
2022-09-11T08:35:53.517Z,32.23
2022-09-11T08:36:53.516Z,32.13
2022-09-11T08:37:55.016Z,32.13
2022-09-11T08:38:53.516Z,32.32
2022-09-11T08:39:53.625Z,32.23
2022-09-11T08:40:53.526Z,32.23
2022-09-11T08:41:53.521Z,32.13
2022-09-11T08:42:53.517Z,32.13
2022-09-11T08:43:53.521Z,32.23
2022-09-11T08:44:53.518Z,32.23
2022-09-11T08:45:53.612Z,32.04
2022-09-11T08:46:53.518Z,32.32
2022-09-11T08:47:53.520Z,32.04
2022-09-11T08:48:53.519Z,32.04
2022-09-11T08:49:53.520Z,32.13
2022-09-11T08:50:53.520Z,32.13
2022-09-11T08:51:53.520Z,32.13
2022-09-11T08:52:53.521Z,32.13
2022-09-11T08:53:53.542Z,32.13
2022-09-11T08:54:53.519Z,32.13
2022-09-11T08:55:53.521Z,32.13
2022-09-11T08:56:53.521Z,32.13
2022-09-11T08:57:53.523Z,32.13
2022-09-11T08:58:53.521Z,32.23
2022-09-11T08:59:53.522Z,32.04
2022-09-11T09:00:53.547Z,32.13
2022-09-11T09:01:53.565Z,32.13
2022-09-11T09:02:53.521Z,32.13
2022-09-11T09:03:53.523Z,32.23
2022-09-11T09:04:53.522Z,32.32
2022-09-11T09:05:53.524Z,32.23
2022-09-11T09:06:53.522Z,32.04
2022-09-11T09:07:53.525Z,32.04
2022-09-11T09:08:53.523Z,32.04
2022-09-11T09:09:53.549Z,32.23
2022-09-11T09:10:53.523Z,32.23
2022-09-11T09:11:53.525Z,32.13
2022-09-11T09:12:53.528Z,32.13
2022-09-11T09:13:53.527Z,32.23
2022-09-11T09:14:53.524Z,32.32
2022-09-11T09:15:53.545Z,32.23
2022-09-11T09:16:53.525Z,32.13
2022-09-11T09:17:53.525Z,32.23
2022-09-11T09:18:53.526Z,32.23
2022-09-11T09:19:53.527Z,32.23
2022-09-11T09:20:53.525Z,32.13
2022-09-11T09:21:53.526Z,32.32
2022-09-11T09:22:53.525Z,32.32
2022-09-11T09:23:53.527Z,32.13
2022-09-11T09:24:53.529Z,32.32
2022-09-11T09:25:53.547Z,32.23
2022-09-11T09:26:53.526Z,32.13
2022-09-11T09:27:53.528Z,32.13
2022-09-11T09:28:53.529Z,32.13
2022-09-11T09:29:53.527Z,32.32
2022-09-11T09:30:53.557Z,32.13
2022-09-11T09:31:53.528Z,32.32
2022-09-11T09:32:53.528Z,32.23
2022-09-11T09:33:53.536Z,32.13
2022-09-11T09:34:53.530Z,32.42
2022-09-11T09:35:53.529Z,32.23
2022-09-11T09:36:53.529Z,32.13
2022-09-11T09:37:53.530Z,32.23
2022-09-11T09:38:53.529Z,32.13
2022-09-11T09:39:53.584Z,32.13
2022-09-11T09:40:53.530Z,32.23
2022-09-11T09:41:53.552Z,32.32
2022-09-11T09:42:53.529Z,32.13
2022-09-11T09:43:53.532Z,32.23
2022-09-11T09:44:53.532Z,32.13
2022-09-11T09:45:53.559Z,32.13
2022-09-11T09:46:53.530Z,32.23
2022-09-11T09:47:53.533Z,32.23
2022-09-11T09:48:53.535Z,32.13
2022-09-11T09:49:53.533Z,32.13
2022-09-11T09:50:53.533Z,32.32
2022-09-11T09:51:53.534Z,32.32
2022-09-11T09:52:53.532Z,32.13
2022-09-11T09:53:53.532Z,32.23
2022-09-11T09:54:53.533Z,32.32
2022-09-11T09:55:53.533Z,32.23
2022-09-11T09:56:53.534Z,32.13
2022-09-11T09:57:53.554Z,32.13
2022-09-11T09:58:53.534Z,32.23
2022-09-11T09:59:53.535Z,32.13
2022-09-11T10:00:53.538Z,32.23
2022-09-11T10:01:53.610Z,32.32
2022-09-11T10:02:53.534Z,32.23
2022-09-11T10:03:53.538Z,32.23
2022-09-11T10:04:53.535Z,31.74
2022-09-11T10:05:53.535Z,32.04
2022-09-11T10:06:53.535Z,32.04
2022-09-11T10:07:53.536Z,32.04
2022-09-11T10:08:53.537Z,32.04
2022-09-11T10:09:53.536Z,32.04
2022-09-11T10:10:53.537Z,32.04
2022-09-11T10:11:53.538Z,31.94
2022-09-11T10:13:07.563Z,31.94
2022-09-11T10:13:53.557Z,32.23
2022-09-11T10:14:53.539Z,31.94
2022-09-11T10:15:53.633Z,31.94
2022-09-11T10:16:53.537Z,31.65
2022-09-11T10:17:53.542Z,31.74
2022-09-11T10:18:53.537Z,31.65
2022-09-11T10:19:53.539Z,31.74
2022-09-11T10:20:53.539Z,31.74
2022-09-11T10:21:53.540Z,31.84
2022-09-11T10:22:53.540Z,31.84
2022-09-11T10:23:53.539Z,31.84
2022-09-11T10:24:53.539Z,31.65
2022-09-11T10:25:53.539Z,31.65
2022-09-11T10:26:53.539Z,31.45
2022-09-11T10:27:53.541Z,31.65
2022-09-11T10:28:53.540Z,31.55
2022-09-11T10:29:53.564Z,31.45
2022-09-11T10:30:53.620Z,31.55
2022-09-11T10:31:53.541Z,31.45
2022-09-11T10:32:53.543Z,31.55
2022-09-11T10:33:53.540Z,31.74
2022-09-11T10:34:53.542Z,31.74
2022-09-11T10:35:53.542Z,31.65
2022-09-11T10:36:53.543Z,31.65
2022-09-11T10:37:53.542Z,31.74
2022-09-11T10:38:53.543Z,31.65
2022-09-11T10:39:53.585Z,31.74
2022-09-11T10:40:53.544Z,31.65
2022-09-11T10:41:53.542Z,31.74
2022-09-11T10:42:53.544Z,31.74
2022-09-11T10:43:53.543Z,31.74
2022-09-11T10:44:53.545Z,31.74
2022-09-11T10:45:53.594Z,31.74
2022-09-11T10:46:53.545Z,31.84
2022-09-11T10:47:53.545Z,31.74
2022-09-11T10:48:53.545Z,31.74
2022-09-11T10:49:53.547Z,31.74
2022-09-11T10:50:53.546Z,31.45
2022-09-11T10:51:53.545Z,31.65
2022-09-11T10:52:53.547Z,31.74
2022-09-11T10:53:53.545Z,31.74
2022-09-11T10:54:53.546Z,31.65
2022-09-11T10:55:53.547Z,31.74
2022-09-11T10:56:53.547Z,31.74
2022-09-11T10:57:53.553Z,31.55
2022-09-11T10:58:55.017Z,31.45
2022-09-11T10:59:53.548Z,31.65
2022-09-11T11:00:53.547Z,31.45
2022-09-11T11:01:53.683Z,31.45
2022-09-11T11:02:53.554Z,31.45
2022-09-11T11:03:53.548Z,31.45
2022-09-11T11:04:53.550Z,31.55
2022-09-11T11:05:53.547Z,31.35
2022-09-11T11:06:53.549Z,31.35
2022-09-11T11:07:53.548Z,31.35
2022-09-11T11:08:53.552Z,31.45
2022-09-11T11:09:53.549Z,31.55
2022-09-11T11:10:53.550Z,31.45
2022-09-11T11:11:53.549Z,31.45
2022-09-11T11:12:53.550Z,31.26
2022-09-11T11:13:53.550Z,30.97
2022-09-11T11:14:53.552Z,31.26
2022-09-11T11:15:53.582Z,31.26
2022-09-11T11:16:53.552Z,31.26
2022-09-11T11:17:53.573Z,31.35
2022-09-11T11:18:53.551Z,31.35
2022-09-11T11:19:53.701Z,31.35
2022-09-11T11:20:53.553Z,31.45
2022-09-11T11:21:53.552Z,30.97
2022-09-11T11:22:53.552Z,31.26
2022-09-11T11:23:53.551Z,31.16
2022-09-11T11:24:53.553Z,31.35
2022-09-11T11:25:53.553Z,31.26
2022-09-11T11:26:53.555Z,31.26
2022-09-11T11:27:53.555Z,31.26
2022-09-11T11:28:53.555Z,31.16
2022-09-11T11:29:53.553Z,31.26
2022-09-11T11:30:53.626Z,31.07
2022-09-11T11:31:53.553Z,31.07
2022-09-11T11:32:53.555Z,31.16
2022-09-11T11:33:53.575Z,31.07
2022-09-11T11:34:53.555Z,31.07
2022-09-11T11:35:53.554Z,31.16
2022-09-11T11:36:53.562Z,31.07
2022-09-11T11:37:53.554Z,30.97
2022-09-11T11:38:53.556Z,31.16
2022-09-11T11:39:53.570Z,31.07
2022-09-11T11:40:53.556Z,31.07
2022-09-11T11:41:53.555Z,31.16
2022-09-11T11:42:56.264Z,31.16
2022-09-11T11:43:53.556Z,31.07
2022-09-11T11:44:53.558Z,31.07
2022-09-11T11:45:53.627Z,31.07
2022-09-11T11:46:53.557Z,31.07
2022-09-11T11:47:53.561Z,30.77
2022-09-11T11:48:53.558Z,30.68
2022-09-11T11:49:53.582Z,30.87
2022-09-11T11:50:53.558Z,30.68
2022-09-11T11:51:53.558Z,30.77
2022-09-11T11:52:53.560Z,30.77
2022-09-11T11:53:53.558Z,30.87
2022-09-11T11:54:53.562Z,30.77
2022-09-11T11:55:53.558Z,30.87
2022-09-11T11:56:53.562Z,30.77
2022-09-11T11:57:53.561Z,30.77
2022-09-11T11:58:53.559Z,30.87
2022-09-11T11:59:53.559Z,30.77
2022-09-11T12:00:55.415Z,30.87
2022-09-11T12:01:53.573Z,30.87
2022-09-11T12:02:53.561Z,30.97
2022-09-11T12:03:53.619Z,30.97
2022-09-11T12:04:53.562Z,30.97
2022-09-11T12:05:53.581Z,30.87
2022-09-11T12:06:53.561Z,30.87
2022-09-11T12:07:53.561Z,30.87
2022-09-11T12:08:53.563Z,30.97
2022-09-11T12:09:53.561Z,30.97
2022-09-11T12:10:53.564Z,30.87
2022-09-11T12:11:53.562Z,30.87
2022-09-11T12:12:53.564Z,30.97
2022-09-11T12:13:53.563Z,30.97
2022-09-11T12:14:53.563Z,30.97
2022-09-11T12:15:53.616Z,30.97
2022-09-11T12:16:53.574Z,30.97
2022-09-11T12:17:53.563Z,31.07
2022-09-11T12:18:53.564Z,30.97
2022-09-11T12:19:53.565Z,31.07
2022-09-11T12:20:53.564Z,30.97
2022-09-11T12:21:53.586Z,31.07
2022-09-11T12:22:53.565Z,30.87
2022-09-11T12:23:53.564Z,30.87
2022-09-11T12:24:53.567Z,30.87
2022-09-11T12:25:53.564Z,30.87
2022-09-11T12:26:53.566Z,30.87
2022-09-11T12:27:53.565Z,30.68
2022-09-11T12:28:53.568Z,31.07
2022-09-11T12:29:53.567Z,30.77
2022-09-11T12:30:53.596Z,31.07
2022-09-11T12:31:53.565Z,30.77
2022-09-11T12:32:53.567Z,30.68
2022-09-11T12:33:53.565Z,30.68
2022-09-11T12:34:53.569Z,30.48
2022-09-11T12:35:53.566Z,30.38
2022-09-11T12:36:53.568Z,30.48
2022-09-11T12:37:54.269Z,30.48
2022-09-11T12:38:53.570Z,30.48
2022-09-11T12:39:53.624Z,30.38
2022-09-11T12:40:53.571Z,30.48
2022-09-11T12:41:53.567Z,30.48
2022-09-11T12:42:53.569Z,30.48
2022-09-11T12:43:53.569Z,30.58
2022-09-11T12:44:53.576Z,30.58
2022-09-11T12:45:53.619Z,30.19
2022-09-11T12:46:53.570Z,30.38
2022-09-11T12:47:53.569Z,30.48
2022-09-11T12:49:17.889Z,30.38
2022-09-11T12:49:53.571Z,30.58
2022-09-11T12:50:53.572Z,30.19
2022-09-11T12:51:53.568Z,30.29
2022-09-11T12:52:53.571Z,30.00